sensor_id;sensor_type;location;lat;lon;timestamp;pressure;altitude;pressure_sealevel;temperature;humidity
55994;BME280;67425;52.126;20.638;2023-04-07T00:02:17;57481.03;;;-144.78;60.79
55994;BME280;67425;52.126;20.638;2023-04-07T00:04:42;57458.19;;;-144.78;59.81
55994;BME280;67425;52.126;20.638;2023-04-07T00:07:08;57485.19;;;-144.78;58.68
55994;BME280;67425;52.126;20.638;2023-04-07T00:09:33;57493.50;;;-144.78;58.88
55994;BME280;67425;52.126;20.638;2023-04-07T00:11:59;57493.50;;;-144.78;59.19
55994;BME280;67425;52.126;20.638;2023-04-07T00:14:27;57495.56;;;-144.78;59.02
55994;BME280;67425;52.126;20.638;2023-04-07T00:16:52;57470.66;;;-144.78;58.56
55994;BME280;67425;52.126;20.638;2023-04-07T00:19:18;57489.34;;;-144.78;60.28
55994;BME280;67425;52.126;20.638;2023-04-07T00:21:43;57497.66;;;-144.78;60.99
55994;BME280;67425;52.126;20.638;2023-04-07T00:24:08;57497.66;;;-144.78;61.30
55994;BME280;67425;52.126;20.638;2023-04-07T00:26:34;57485.19;;;-144.78;60.81
55994;BME280;67425;52.126;20.638;2023-04-07T00:28:59;57474.81;;;-144.78;59.36
55994;BME280;67425;52.126;20.638;2023-04-07T00:31:25;57493.50;;;-144.78;60.61
55994;BME280;67425;52.126;20.638;2023-04-07T00:33:50;57460.28;;;-144.78;58.97
55994;BME280;67425;52.126;20.638;2023-04-07T00:36:16;57487.28;;;-144.78;59.87
55994;BME280;67425;52.126;20.638;2023-04-07T00:38:41;57472.72;;;-144.78;58.84
55994;BME280;67425;52.126;20.638;2023-04-07T00:41:06;57474.81;;;-144.78;58.29
55994;BME280;67425;52.126;20.638;2023-04-07T00:43:32;57454.03;;;-144.78;57.50
55994;BME280;67425;52.126;20.638;2023-04-07T00:45:57;57481.03;;;-144.78;59.33
55994;BME280;67425;52.126;20.638;2023-04-07T00:48:23;57495.56;;;-144.78;60.39
55994;BME280;67425;52.126;20.638;2023-04-07T00:50:48;57481.03;;;-144.78;58.81
55994;BME280;67425;52.126;20.638;2023-04-07T00:53:15;57495.56;;;-144.78;61.31
55994;BME280;67425;52.126;20.638;2023-04-07T00:55:40;57503.88;;;-144.78;59.54
55994;BME280;67425;52.126;20.638;2023-04-07T00:58:06;57445.72;;;-144.78;58.04
55994;BME280;67425;52.126;20.638;2023-04-07T01:00:34;57478.97;;;-144.78;59.25
55994;BME280;67425;52.126;20.638;2023-04-07T01:03:09;57464.41;;;-144.78;59.06
55994;BME280;67425;52.126;20.638;2023-04-07T01:06:04;57458.19;;;-144.78;58.90
55994;BME280;67425;52.126;20.638;2023-04-07T01:08:53;57512.19;;;-144.78;61.21
55994;BME280;67425;52.126;20.638;2023-04-07T01:11:29;57454.03;;;-144.78;58.14
55994;BME280;67425;52.126;20.638;2023-04-07T01:13:57;57476.88;;;-144.78;58.27
55994;BME280;67425;52.126;20.638;2023-04-07T01:16:34;57483.13;;;-144.78;60.42
55994;BME280;67425;52.126;20.638;2023-04-07T01:19:12;57483.13;;;-144.78;59.77
55994;BME280;67425;52.126;20.638;2023-04-07T01:21:39;57454.03;;;-144.78;59.40
55994;BME280;67425;52.126;20.638;2023-04-07T01:27:04;57460.28;;;-144.78;59.50
55994;BME280;67425;52.126;20.638;2023-04-07T01:29:43;57443.66;;;-144.78;58.60
55994;BME280;67425;52.126;20.638;2023-04-07T01:32:13;57449.88;;;-144.78;58.22
55994;BME280;67425;52.126;20.638;2023-04-07T01:34:39;57476.88;;;-144.78;60.16
55994;BME280;67425;52.126;20.638;2023-04-07T01:37:06;57487.28;;;-144.78;59.61
55994;BME280;67425;52.126;20.638;2023-04-07T01:39:32;57445.72;;;-144.78;60.87
55994;BME280;67425;52.126;20.638;2023-04-07T01:41:58;57478.97;;;-144.78;58.95
55994;BME280;67425;52.126;20.638;2023-04-07T01:44:27;57456.13;;;-144.78;58.50
55994;BME280;67425;52.126;20.638;2023-04-07T01:46:53;57491.41;;;-144.78;61.07
55994;BME280;67425;52.126;20.638;2023-04-07T01:49:20;57489.34;;;-144.78;60.42
55994;BME280;67425;52.126;20.638;2023-04-07T01:51:47;57493.50;;;-144.78;62.12
55994;BME280;67425;52.126;20.638;2023-04-07T01:54:16;57451.97;;;-144.78;59.21
55994;BME280;67425;52.126;20.638;2023-04-07T01:56:42;57472.72;;;-144.78;59.27
55994;BME280;67425;52.126;20.638;2023-04-07T01:59:08;57447.81;;;-144.78;58.14
55994;BME280;67425;52.126;20.638;2023-04-07T02:01:34;57470.66;;;-144.78;60.77
55994;BME280;67425;52.126;20.638;2023-04-07T02:06:50;57481.03;;;-144.78;60.53
55994;BME280;67425;52.126;20.638;2023-04-07T02:09:19;57464.41;;;-144.78;61.92
55994;BME280;67425;52.126;20.638;2023-04-07T02:11:45;57458.19;;;-144.78;59.37
55994;BME280;67425;52.126;20.638;2023-04-07T02:14:12;57462.34;;;-144.78;59.27
55994;BME280;67425;52.126;20.638;2023-04-07T02:16:40;57464.41;;;-144.78;60.05
55994;BME280;67425;52.126;20.638;2023-04-07T02:19:06;57487.28;;;-144.78;60.66
55994;BME280;67425;52.126;20.638;2023-04-07T02:21:33;57474.81;;;-144.78;60.59
55994;BME280;67425;52.126;20.638;2023-04-07T02:24:05;57447.81;;;-144.78;59.14
55994;BME280;67425;52.126;20.638;2023-04-07T02:26:34;57431.19;;;-144.78;57.99
55994;BME280;67425;52.126;20.638;2023-04-07T02:29:01;57416.66;;;-144.78;57.02
55994;BME280;67425;52.126;20.638;2023-04-07T02:31:26;57410.44;;;-144.78;56.51
55994;BME280;67425;52.126;20.638;2023-04-07T02:33:51;57458.19;;;-144.78;59.02
55994;BME280;67425;52.126;20.638;2023-04-07T02:36:17;57437.44;;;-144.78;57.15
55994;BME280;67425;52.126;20.638;2023-04-07T02:38:42;57454.03;;;-144.78;58.47
55994;BME280;67425;52.126;20.638;2023-04-07T02:41:07;57456.13;;;-144.78;59.39
55994;BME280;67425;52.126;20.638;2023-04-07T02:43:33;57451.97;;;-144.78;59.20
55994;BME280;67425;52.126;20.638;2023-04-07T02:45:58;57478.97;;;-144.78;60.23
55994;BME280;67425;52.126;20.638;2023-04-07T02:48:23;57462.34;;;-144.78;58.90
55994;BME280;67425;52.126;20.638;2023-04-07T02:50:49;57447.81;;;-144.78;58.53
55994;BME280;67425;52.126;20.638;2023-04-07T02:53:14;57478.97;;;-144.78;61.55
55994;BME280;67425;52.126;20.638;2023-04-07T02:55:40;57447.81;;;-144.78;59.39
55994;BME280;67425;52.126;20.638;2023-04-07T02:58:06;57454.03;;;-144.78;58.73
55994;BME280;67425;52.126;20.638;2023-04-07T03:00:32;57449.88;;;-144.78;59.75
55994;BME280;67425;52.126;20.638;2023-04-07T03:02:57;57470.66;;;-144.78;59.47
55994;BME280;67425;52.126;20.638;2023-04-07T03:05:23;57439.50;;;-144.78;57.44
55994;BME280;67425;52.126;20.638;2023-04-07T03:07:48;57451.97;;;-144.78;58.90
55994;BME280;67425;52.126;20.638;2023-04-07T03:10:13;57456.13;;;-144.78;57.65
55994;BME280;67425;52.126;20.638;2023-04-07T03:12:39;57464.41;;;-144.78;59.62
55994;BME280;67425;52.126;20.638;2023-04-07T03:15:04;57437.44;;;-144.78;59.66
55994;BME280;67425;52.126;20.638;2023-04-07T03:17:30;57435.34;;;-144.78;58.93
55994;BME280;67425;52.126;20.638;2023-04-07T03:19:55;57456.13;;;-144.78;58.83
55994;BME280;67425;52.126;20.638;2023-04-07T03:22:21;57431.19;;;-144.78;57.20
55994;BME280;67425;52.126;20.638;2023-04-07T03:24:46;57454.03;;;-144.78;59.64
55994;BME280;67425;52.126;20.638;2023-04-07T03:27:11;57454.03;;;-144.78;59.72
55994;BME280;67425;52.126;20.638;2023-04-07T03:29:37;57451.97;;;-144.78;58.11
55994;BME280;67425;52.126;20.638;2023-04-07T03:32:02;57441.59;;;-144.78;59.57
55994;BME280;67425;52.126;20.638;2023-04-07T03:34:27;57420.81;;;-144.78;56.59
55994;BME280;67425;52.126;20.638;2023-04-07T03:36:52;57418.72;;;-144.78;56.82
55994;BME280;67425;52.126;20.638;2023-04-07T03:39:18;57418.72;;;-144.78;56.71
55994;BME280;67425;52.126;20.638;2023-04-07T03:41:43;57416.66;;;-144.78;56.56
55994;BME280;67425;52.126;20.638;2023-04-07T03:44:08;57447.81;;;-144.78;57.31
55994;BME280;67425;52.126;20.638;2023-04-07T03:46:34;57418.72;;;-144.78;56.63
55994;BME280;67425;52.126;20.638;2023-04-07T03:48:59;57433.28;;;-144.78;57.01
55994;BME280;67425;52.126;20.638;2023-04-07T03:51:24;57427.03;;;-144.78;57.99
55994;BME280;67425;52.126;20.638;2023-04-07T03:53:52;57422.88;;;-144.78;58.07
55994;BME280;67425;52.126;20.638;2023-04-07T03:56:17;57429.13;;;-144.78;57.19
55994;BME280;67425;52.126;20.638;2023-04-07T03:58:42;57435.34;;;-144.78;58.48
55994;BME280;67425;52.126;20.638;2023-04-07T04:01:08;57441.59;;;-144.78;58.25
55994;BME280;67425;52.126;20.638;2023-04-07T04:03:34;57422.88;;;-144.78;58.00
55994;BME280;67425;52.126;20.638;2023-04-07T04:05:59;57406.28;;;-144.78;56.29
55994;BME280;67425;52.126;20.638;2023-04-07T04:08:25;57422.88;;;-144.78;56.42
55994;BME280;67425;52.126;20.638;2023-04-07T04:10:51;57443.66;;;-144.78;58.70
55994;BME280;67425;52.126;20.638;2023-04-07T04:13:16;57418.72;;;-144.78;57.53
55994;BME280;67425;52.126;20.638;2023-04-07T04:15:41;57439.50;;;-144.78;57.76
55994;BME280;67425;52.126;20.638;2023-04-07T04:18:07;57437.44;;;-144.78;60.26
55994;BME280;67425;52.126;20.638;2023-04-07T04:20:33;57420.81;;;-144.78;57.93
55994;BME280;67425;52.126;20.638;2023-04-07T04:22:58;57427.03;;;-144.78;58.61
55994;BME280;67425;52.126;20.638;2023-04-07T04:25:24;57433.28;;;-144.78;58.08
55994;BME280;67425;52.126;20.638;2023-04-07T04:27:49;57433.28;;;-144.78;58.52
55994;BME280;67425;52.126;20.638;2023-04-07T04:30:15;57420.81;;;-144.78;59.93
55994;BME280;67425;52.126;20.638;2023-04-07T04:32:40;57412.50;;;-144.78;58.87
55994;BME280;67425;52.126;20.638;2023-04-07T04:35:06;57429.13;;;-144.78;58.27
55994;BME280;67425;52.126;20.638;2023-04-07T04:37:31;57391.75;;;-144.78;56.82
55994;BME280;67425;52.126;20.638;2023-04-07T04:39:57;57420.81;;;-144.78;57.26
55994;BME280;67425;52.126;20.638;2023-04-07T04:42:22;57402.13;;;-144.78;57.04
55994;BME280;67425;52.126;20.638;2023-04-07T04:44:47;57418.72;;;-144.78;58.20
55994;BME280;67425;52.126;20.638;2023-04-07T04:47:13;57431.19;;;-144.78;59.72
55994;BME280;67425;52.126;20.638;2023-04-07T04:49:38;57418.72;;;-144.78;58.90
55994;BME280;67425;52.126;20.638;2023-04-07T04:52:04;57385.50;;;-144.78;56.82
55994;BME280;67425;52.126;20.638;2023-04-07T04:54:29;57412.50;;;-144.78;58.17
55994;BME280;67425;52.126;20.638;2023-04-07T04:56:54;57427.03;;;-144.78;60.99
55994;BME280;67425;52.126;20.638;2023-04-07T04:59:22;57418.72;;;-144.78;58.98
55994;BME280;67425;52.126;20.638;2023-04-07T05:01:47;57427.03;;;-144.78;59.79
55994;BME280;67425;52.126;20.638;2023-04-07T05:04:12;57437.44;;;-144.78;60.13
55994;BME280;67425;52.126;20.638;2023-04-07T05:06:38;57410.44;;;-144.78;58.07
55994;BME280;67425;52.126;20.638;2023-04-07T05:09:03;57431.19;;;-144.78;60.01
55994;BME280;67425;52.126;20.638;2023-04-07T05:11:28;57431.19;;;-144.78;60.12
55994;BME280;67425;52.126;20.638;2023-04-07T05:13:54;57427.03;;;-144.78;59.53
55994;BME280;67425;52.126;20.638;2023-04-07T05:16:19;57433.28;;;-144.78;60.07
55994;BME280;67425;52.126;20.638;2023-04-07T05:18:45;57414.59;;;-144.78;60.70
55994;BME280;67425;52.126;20.638;2023-04-07T05:21:10;57420.81;;;-144.78;58.65
55994;BME280;67425;52.126;20.638;2023-04-07T05:23:36;57431.19;;;-144.78;60.67
55994;BME280;67425;52.126;20.638;2023-04-07T05:26:01;57443.66;;;-144.78;62.59
55994;BME280;67425;52.126;20.638;2023-04-07T05:28:26;57437.44;;;-144.78;61.52
55994;BME280;67425;52.126;20.638;2023-04-07T05:30:52;57418.72;;;-144.78;60.55
55994;BME280;67425;52.126;20.638;2023-04-07T05:33:18;57408.34;;;-144.78;59.89
55994;BME280;67425;52.126;20.638;2023-04-07T05:35:44;57395.88;;;-144.78;58.72
55994;BME280;67425;52.126;20.638;2023-04-07T05:38:10;57422.88;;;-144.78;59.32
55994;BME280;67425;52.126;20.638;2023-04-07T05:40:35;57422.88;;;-144.78;59.07
55994;BME280;67425;52.126;20.638;2023-04-07T05:43:01;57418.72;;;-144.78;60.16
55994;BME280;67425;52.126;20.638;2023-04-07T05:45:26;57410.44;;;-144.78;58.13
55994;BME280;67425;52.126;20.638;2023-04-07T05:47:51;57383.44;;;-144.78;57.60
55994;BME280;67425;52.126;20.638;2023-04-07T05:50:17;57393.81;;;-144.78;57.98
55994;BME280;67425;52.126;20.638;2023-04-07T05:52:42;57420.81;;;-144.78;58.54
55994;BME280;67425;52.126;20.638;2023-04-07T05:55:08;57397.97;;;-144.78;60.16
55994;BME280;67425;52.126;20.638;2023-04-07T05:57:33;57393.81;;;-144.78;58.82
55994;BME280;67425;52.126;20.638;2023-04-07T05:59:59;57410.44;;;-144.78;59.64
55994;BME280;67425;52.126;20.638;2023-04-07T06:02:24;57420.81;;;-144.78;60.38
55994;BME280;67425;52.126;20.638;2023-04-07T06:04:50;57412.50;;;-144.78;59.99
55994;BME280;67425;52.126;20.638;2023-04-07T06:07:15;57408.34;;;-144.78;61.28
55994;BME280;67425;52.126;20.638;2023-04-07T06:09:41;57414.59;;;-144.78;60.76
55994;BME280;67425;52.126;20.638;2023-04-07T06:12:07;57397.97;;;-144.78;60.13
55994;BME280;67425;52.126;20.638;2023-04-07T06:14:33;57404.19;;;-144.78;60.90
55994;BME280;67425;52.126;20.638;2023-04-07T06:16:59;57389.66;;;-144.78;59.78
55994;BME280;67425;52.126;20.638;2023-04-07T06:19:24;57414.59;;;-144.78;61.41
55994;BME280;67425;52.126;20.638;2023-04-07T06:21:51;57414.59;;;-144.78;60.75
55994;BME280;67425;52.126;20.638;2023-04-07T06:24:16;57439.50;;;-144.78;63.81
55994;BME280;67425;52.126;20.638;2023-04-07T06:26:43;57402.13;;;-144.78;64.07
55994;BME280;67425;52.126;20.638;2023-04-07T06:29:09;57418.72;;;-144.78;64.35
55994;BME280;67425;52.126;20.638;2023-04-07T06:31:34;57406.28;;;-144.78;63.45
55994;BME280;67425;52.126;20.638;2023-04-07T06:34:00;57464.41;;;-144.78;66.36
55994;BME280;67425;52.126;20.638;2023-04-07T06:36:25;57397.97;;;-144.78;64.67
55994;BME280;67425;52.126;20.638;2023-04-07T06:38:51;57408.34;;;-144.78;63.83
55994;BME280;67425;52.126;20.638;2023-04-07T06:41:17;57429.13;;;-144.78;67.58
55994;BME280;67425;52.126;20.638;2023-04-07T06:43:43;57397.97;;;-144.78;64.58
55994;BME280;67425;52.126;20.638;2023-04-07T06:46:09;57418.72;;;-144.78;66.93
55994;BME280;67425;52.126;20.638;2023-04-07T06:48:34;57387.59;;;-144.78;65.09
55994;BME280;67425;52.126;20.638;2023-04-07T06:50:59;57400.03;;;-144.78;63.31
55994;BME280;67425;52.126;20.638;2023-04-07T06:53:25;57385.50;;;-144.78;61.54
55994;BME280;67425;52.126;20.638;2023-04-07T06:55:50;57387.59;;;-144.78;61.49
55994;BME280;67425;52.126;20.638;2023-04-07T06:58:15;57420.81;;;-144.78;63.37
55994;BME280;67425;52.126;20.638;2023-04-07T07:00:41;57370.97;;;-144.78;61.82
55994;BME280;67425;52.126;20.638;2023-04-07T07:03:06;57402.13;;;-144.78;61.91
55994;BME280;67425;52.126;20.638;2023-04-07T07:05:31;57402.13;;;-144.78;64.62
55994;BME280;67425;52.126;20.638;2023-04-07T07:07:57;57389.66;;;-144.78;64.53
55994;BME280;67425;52.126;20.638;2023-04-07T07:10:22;57379.28;;;-144.78;62.06
55994;BME280;67425;52.126;20.638;2023-04-07T07:12:48;57370.97;;;-144.78;61.50
55994;BME280;67425;52.126;20.638;2023-04-07T07:15:14;57391.75;;;-144.78;62.55
55994;BME280;67425;52.126;20.638;2023-04-07T07:17:39;57402.13;;;-144.78;63.31
55994;BME280;67425;52.126;20.638;2023-04-07T07:20:05;57393.81;;;-144.78;64.59
55994;BME280;67425;52.126;20.638;2023-04-07T07:22:30;57395.88;;;-144.78;63.61
55994;BME280;67425;52.126;20.638;2023-04-07T07:24:56;57391.75;;;-144.78;63.77
55994;BME280;67425;52.126;20.638;2023-04-07T07:27:21;57395.88;;;-144.78;64.66
55994;BME280;67425;52.126;20.638;2023-04-07T07:29:46;57370.97;;;-144.78;63.88
55994;BME280;67425;52.126;20.638;2023-04-07T07:32:12;57373.06;;;-144.78;64.57
55994;BME280;67425;52.126;20.638;2023-04-07T07:34:37;57393.81;;;-144.78;63.79
55994;BME280;67425;52.126;20.638;2023-04-07T07:37:02;57366.81;;;-144.78;64.55
55994;BME280;67425;52.126;20.638;2023-04-07T07:39:28;57373.06;;;-144.78;62.77
55994;BME280;67425;52.126;20.638;2023-04-07T07:41:54;57397.97;;;-144.78;64.77
55994;BME280;67425;52.126;20.638;2023-04-07T07:44:20;57360.59;;;-144.78;63.72
55994;BME280;67425;52.126;20.638;2023-04-07T07:46:46;57377.19;;;-144.78;64.57
55994;BME280;67425;52.126;20.638;2023-04-07T07:49:12;57375.13;;;-144.78;64.81
55994;BME280;67425;52.126;20.638;2023-04-07T07:51:37;57368.91;;;-144.78;63.19
55994;BME280;67425;52.126;20.638;2023-04-07T07:54:02;57387.59;;;-144.78;64.10
55994;BME280;67425;52.126;20.638;2023-04-07T07:56:28;57366.81;;;-144.78;63.93
55994;BME280;67425;52.126;20.638;2023-04-07T07:58:53;57358.50;;;-144.78;63.91
55994;BME280;67425;52.126;20.638;2023-04-07T08:01:18;57364.75;;;-144.78;63.41
55994;BME280;67425;52.126;20.638;2023-04-07T08:03:44;57373.06;;;-144.78;64.60
55994;BME280;67425;52.126;20.638;2023-04-07T08:06:09;57362.66;;;-144.78;63.43
55994;BME280;67425;52.126;20.638;2023-04-07T08:08:36;57385.50;;;-144.78;64.74
55994;BME280;67425;52.126;20.638;2023-04-07T08:11:01;57375.13;;;-144.78;64.25
55994;BME280;67425;52.126;20.638;2023-04-07T08:13:27;57364.75;;;-144.78;62.97
55994;BME280;67425;52.126;20.638;2023-04-07T08:15:52;57362.66;;;-144.78;63.82
55994;BME280;67425;52.126;20.638;2023-04-07T08:18:17;57373.06;;;-144.78;63.67
55994;BME280;67425;52.126;20.638;2023-04-07T08:20:43;57362.66;;;-144.78;64.95
55994;BME280;67425;52.126;20.638;2023-04-07T08:23:08;57362.66;;;-144.78;64.30
55994;BME280;67425;52.126;20.638;2023-04-07T08:25:33;57352.28;;;-144.78;64.09
55994;BME280;67425;52.126;20.638;2023-04-07T08:27:59;57358.50;;;-144.78;64.11
55994;BME280;67425;52.126;20.638;2023-04-07T08:30:25;57366.81;;;-144.78;64.32
55994;BME280;67425;52.126;20.638;2023-04-07T08:32:50;57360.59;;;-144.78;65.49
55994;BME280;67425;52.126;20.638;2023-04-07T08:35:15;57375.13;;;-144.78;66.31
55994;BME280;67425;52.126;20.638;2023-04-07T08:37:41;57379.28;;;-144.78;66.84
55994;BME280;67425;52.126;20.638;2023-04-07T08:40:08;57356.44;;;-144.78;66.37
55994;BME280;67425;52.126;20.638;2023-04-07T08:42:34;57350.19;;;-144.78;64.24
55994;BME280;67425;52.126;20.638;2023-04-07T08:45:06;57339.81;;;-144.78;65.33
55994;BME280;67425;52.126;20.638;2023-04-07T08:47:33;57335.66;;;-144.78;65.74
55994;BME280;67425;52.126;20.638;2023-04-07T08:50:03;57352.28;;;-144.78;65.02
55994;BME280;67425;52.126;20.638;2023-04-07T08:52:45;57348.13;;;-144.78;62.93
55994;BME280;67425;52.126;20.638;2023-04-07T08:55:14;57341.91;;;-144.78;63.45
55994;BME280;67425;52.126;20.638;2023-04-07T08:57:40;57341.91;;;-144.78;63.50
55994;BME280;67425;52.126;20.638;2023-04-07T09:00:07;57360.59;;;-144.78;64.08
55994;BME280;67425;52.126;20.638;2023-04-07T09:02:35;57352.28;;;-144.78;62.82
55994;BME280;67425;52.126;20.638;2023-04-07T09:05:03;57333.59;;;-144.78;62.95
55994;BME280;67425;52.126;20.638;2023-04-07T09:07:31;57335.66;;;-144.78;61.58
55994;BME280;67425;52.126;20.638;2023-04-07T09:09:57;57341.91;;;-144.78;62.80
55994;BME280;67425;52.126;20.638;2023-04-07T09:12:22;57352.28;;;-144.78;63.70
55994;BME280;67425;52.126;20.638;2023-04-07T09:14:48;57366.81;;;-144.78;65.21
55994;BME280;67425;52.126;20.638;2023-04-07T09:17:13;57323.22;;;-144.78;62.58
55994;BME280;67425;52.126;20.638;2023-04-07T09:19:39;57327.34;;;-144.78;62.09
55994;BME280;67425;52.126;20.638;2023-04-07T09:22:04;57346.06;;;-144.78;62.51
55994;BME280;67425;52.126;20.638;2023-04-07T09:24:30;57373.06;;;-144.78;63.76
55994;BME280;67425;52.126;20.638;2023-04-07T09:27:17;57314.91;;;-144.78;62.99
55994;BME280;67425;52.126;20.638;2023-04-07T09:29:45;57337.75;;;-144.78;63.85
55994;BME280;67425;52.126;20.638;2023-04-07T09:32:10;57316.97;;;-144.78;63.29
55994;BME280;67425;52.126;20.638;2023-04-07T09:34:39;57310.75;;;-144.78;62.40
55994;BME280;67425;52.126;20.638;2023-04-07T09:37:05;57327.34;;;-144.78;62.54
55994;BME280;67425;52.126;20.638;2023-04-07T09:39:31;57327.34;;;-144.78;63.07
55994;BME280;67425;52.126;20.638;2023-04-07T09:41:57;57368.91;;;-144.78;65.46
55994;BME280;67425;52.126;20.638;2023-04-07T09:44:23;57343.97;;;-144.78;64.77
55994;BME280;67425;52.126;20.638;2023-04-07T09:46:51;57335.66;;;-144.78;63.76
55994;BME280;67425;52.126;20.638;2023-04-07T09:49:17;57323.22;;;-144.78;63.93
55994;BME280;67425;52.126;20.638;2023-04-07T09:51:53;57321.13;;;-144.78;62.97
55994;BME280;67425;52.126;20.638;2023-04-07T09:54:36;57327.34;;;-144.78;63.73
55994;BME280;67425;52.126;20.638;2023-04-07T09:57:03;57325.28;;;-144.78;62.81
55994;BME280;67425;52.126;20.638;2023-04-07T09:59:30;57314.91;;;-144.78;62.37
55994;BME280;67425;52.126;20.638;2023-04-07T10:01:56;57327.34;;;-144.78;62.60
55994;BME280;67425;52.126;20.638;2023-04-07T10:04:23;57296.22;;;-144.78;60.75
55994;BME280;67425;52.126;20.638;2023-04-07T10:06:49;57298.28;;;-144.78;61.35
55994;BME280;67425;52.126;20.638;2023-04-07T10:09:15;57314.91;;;-144.78;61.21
55994;BME280;67425;52.126;20.638;2023-04-07T10:11:42;57281.69;;;-144.78;59.14
55994;BME280;67425;52.126;20.638;2023-04-07T10:14:10;57310.75;;;-144.78;60.16
55994;BME280;67425;52.126;20.638;2023-04-07T10:16:37;57277.53;;;-144.78;59.36
55994;BME280;67425;52.126;20.638;2023-04-07T10:19:03;57296.22;;;-144.78;59.67
55994;BME280;67425;52.126;20.638;2023-04-07T10:21:31;57298.28;;;-144.78;60.05
55994;BME280;67425;52.126;20.638;2023-04-07T10:26:58;57285.81;;;-144.78;57.96
55994;BME280;67425;52.126;20.638;2023-04-07T10:29:28;57310.75;;;-144.78;59.38
55994;BME280;67425;52.126;20.638;2023-04-07T10:31:58;57302.44;;;-144.78;59.67
55994;BME280;67425;52.126;20.638;2023-04-07T10:37:13;57289.97;;;-144.78;59.81
55994;BME280;67425;52.126;20.638;2023-04-07T10:39:41;57300.38;;;-144.78;59.63
55994;BME280;67425;52.126;20.638;2023-04-07T10:45:01;57289.97;;;-144.78;58.19
55994;BME280;67425;52.126;20.638;2023-04-07T10:47:27;57275.44;;;-144.78;58.74
55994;BME280;67425;52.126;20.638;2023-04-07T10:50:18;57287.91;;;-144.78;59.90
55994;BME280;67425;52.126;20.638;2023-04-07T10:52:46;57289.97;;;-144.78;59.35
55994;BME280;67425;52.126;20.638;2023-04-07T10:55:32;57277.53;;;-144.78;59.39
55994;BME280;67425;52.126;20.638;2023-04-07T11:03:35;57298.28;;;-144.78;59.79
55994;BME280;67425;52.126;20.638;2023-04-07T11:06:19;57277.53;;;-144.78;57.76
55994;BME280;67425;52.126;20.638;2023-04-07T11:08:45;57277.53;;;-144.78;60.10
55994;BME280;67425;52.126;20.638;2023-04-07T11:11:15;57271.28;;;-144.78;59.22
55994;BME280;67425;52.126;20.638;2023-04-07T11:13:45;57267.13;;;-144.78;58.23
55994;BME280;67425;52.126;20.638;2023-04-07T11:16:12;57285.81;;;-144.78;59.46
55994;BME280;67425;52.126;20.638;2023-04-07T11:18:38;57285.81;;;-144.78;60.53
55994;BME280;67425;52.126;20.638;2023-04-07T11:21:04;57285.81;;;-144.78;61.38
55994;BME280;67425;52.126;20.638;2023-04-07T11:23:40;57273.38;;;-144.78;59.45
55994;BME280;67425;52.126;20.638;2023-04-07T11:26:07;57269.22;;;-144.78;58.33
55994;BME280;67425;52.126;20.638;2023-04-07T11:28:32;57260.91;;;-144.78;59.86
55994;BME280;67425;52.126;20.638;2023-04-07T11:30:58;57246.38;;;-144.78;57.24
55994;BME280;67425;52.126;20.638;2023-04-07T11:33:29;57248.44;;;-144.78;57.49
55994;BME280;67425;52.126;20.638;2023-04-07T11:35:56;57229.75;;;-144.78;55.76
55994;BME280;67425;52.126;20.638;2023-04-07T11:38:27;57246.38;;;-144.78;55.04
55994;BME280;67425;52.126;20.638;2023-04-07T11:40:54;57233.91;;;-144.78;54.85
55994;BME280;67425;52.126;20.638;2023-04-07T11:43:29;57252.59;;;-144.78;57.48
55994;BME280;67425;52.126;20.638;2023-04-07T11:46:09;57211.06;;;-144.78;54.25
55994;BME280;67425;52.126;20.638;2023-04-07T11:48:36;57229.75;;;-144.78;55.43
55994;BME280;67425;52.126;20.638;2023-04-07T11:51:02;57221.44;;;-144.78;54.47
55994;BME280;67425;52.126;20.638;2023-04-07T11:53:35;57227.69;;;-144.78;55.33
55994;BME280;67425;52.126;20.638;2023-04-07T11:56:28;57231.84;;;-144.78;55.80
55994;BME280;67425;52.126;20.638;2023-04-07T11:58:54;57215.22;;;-144.78;55.05
55994;BME280;67425;52.126;20.638;2023-04-07T12:01:21;57215.22;;;-144.78;55.25
55994;BME280;67425;52.126;20.638;2023-04-07T12:06:27;57240.13;;;-144.78;55.04
55994;BME280;67425;52.126;20.638;2023-04-07T12:08:54;57213.16;;;-144.78;53.36
55994;BME280;67425;52.126;20.638;2023-04-07T12:11:19;57213.16;;;-144.78;54.14
55994;BME280;67425;52.126;20.638;2023-04-07T12:13:45;57238.06;;;-144.78;55.13
55994;BME280;67425;52.126;20.638;2023-04-07T12:16:10;57233.91;;;-144.78;55.78
55994;BME280;67425;52.126;20.638;2023-04-07T12:18:35;57225.59;;;-144.78;56.05
55994;BME280;67425;52.126;20.638;2023-04-07T12:21:01;57229.75;;;-144.78;57.67
55994;BME280;67425;52.126;20.638;2023-04-07T12:23:26;57248.44;;;-144.78;57.95
55994;BME280;67425;52.126;20.638;2023-04-07T12:25:52;57219.38;;;-144.78;56.99
55994;BME280;67425;52.126;20.638;2023-04-07T12:28:17;57240.13;;;-144.78;57.09
55994;BME280;67425;52.126;20.638;2023-04-07T12:30:42;57242.22;;;-144.78;57.39
55994;BME280;67425;52.126;20.638;2023-04-07T12:33:08;57236.00;;;-144.78;56.53
55994;BME280;67425;52.126;20.638;2023-04-07T12:35:33;57252.59;;;-144.78;59.13
55994;BME280;67425;52.126;20.638;2023-04-07T12:37:59;57260.91;;;-144.78;60.00
55994;BME280;67425;52.126;20.638;2023-04-07T12:40:24;57252.59;;;-144.78;60.12
55994;BME280;67425;52.126;20.638;2023-04-07T12:42:50;57244.28;;;-144.78;58.36
55994;BME280;67425;52.126;20.638;2023-04-07T12:45:16;57223.53;;;-144.78;57.89
55994;BME280;67425;52.126;20.638;2023-04-07T12:47:43;57217.31;;;-144.78;58.45
55994;BME280;67425;52.126;20.638;2023-04-07T12:50:09;57236.00;;;-144.78;58.05
55994;BME280;67425;52.126;20.638;2023-04-07T12:52:34;57244.28;;;-144.78;60.16